Latest Weather Observations for Perisher Valley

IDN60901

Issued at 8:11 pm EDT Tuesday 22 October 2019 (issued every 10 minutes, with the page automatically refreshed every 10 minutes)

About weather observations | Map of Canberra area stations | Latest observations for Canberra area | Other Formats
Station Details ID: 071075 Name: PERISHER VALLEY AWS Lat: -36.41 Lon: 148.41 Height: 1738.0 m
Data from the previous 72 hours. | See also: Recent months at Perisher Valley
Date/Time
EDT
Temp
°C
App
Temp
°C
Dew
Point
°C
Rel
Hum
%
Delta-T
°C
Wind Press
QNH
hPa
Press
MSL
hPa
Rain since
9am
mm
Dir  Spd
km/h
Gust
km/h
Spd
kts
Gust
kts
22/08:00pm 11.1 9.4 6.0 71 2.6 E 4 9 2 5 - - 0.0
22/07:30pm 11.7 9.0 5.8 67 3.0 E 9 15 5 8 - - 0.0
22/07:00pm 12.2 9.6 4.2 58 4.0 WNW 7 17 4 9 - - 0.0
22/06:30pm 13.6 10.2 3.9 52 4.9 W 11 19 6 10 - - 0.0
22/06:00pm 14.9 11.9 4.3 49 5.4 W 9 17 5 9 - - 0.0
22/05:30pm 15.2 11.7 3.7 46 5.8 W 11 19 6 10 - - 0.0
22/05:00pm 15.9 12.6 2.3 40 6.7 WSW 9 15 5 8 - - 0.0
22/04:30pm 16.2 13.4 2.9 41 6.7 W 7 15 4 8 - - 0.0
22/04:00pm 16.0 12.3 2.1 39 6.8 W 11 24 6 13 - - 0.0
22/03:30pm 16.0 12.5 1.3 37 7.1 WSW 9 22 5 12 - - 0.0
22/03:00pm 16.9 13.7 1.0 34 7.7 WSW 7 17 4 9 - - 0.0
22/02:30pm 16.4 12.4 -2.1 28 8.4 WSW 9 15 5 8 - - 0.0
22/02:00pm 16.2 11.8 -2.8 27 8.5 W 11 20 6 11 - - 0.0
22/01:30pm 15.1 10.6 -3.2 28 8.0 W 11 22 6 12 - - 0.0
22/01:00pm 14.7 10.3 -2.2 31 7.5 W 11 24 6 13 - - 0.0
22/12:30pm 15.2 11.0 -0.9 33 7.4 W 11 20 6 11 - - 0.0
22/12:00pm 14.3 10.4 -1.7 33 7.2 W 9 24 5 13 - - 0.0
22/11:30am 14.8 11.0 -0.5 35 7.1 WSW 9 22 5 12 - - 0.0
22/11:00am 14.6 11.4 -0.3 36 6.9 W 6 17 3 9 - - 0.0
22/10:30am 13.9 10.0 -1.7 34 7.0 WNW 9 19 5 10 - - 0.0
22/10:00am 12.9 9.4 -1.1 38 6.3 W 7 13 4 7 - - 0.0
22/09:30am 12.4 7.8 -0.8 40 5.9 W 13 22 7 12 - - 0.0
22/09:00am 11.4 8.0 1.6 51 4.6 WSW 9 20 5 11 - - 0.0
22/08:30am 10.6 6.6 2.9 59 3.7 WSW 13 28 7 15 - - 0.0
22/08:00am 10.0 5.7 3.3 63 3.2 WSW 15 32 8 17 - - 0.0
22/07:30am 9.4 5.0 2.7 63 3.2 W 15 28 8 15 - - 0.0
22/07:00am 8.8 4.8 2.8 66 2.8 W 13 24 7 13 - - 0.0
22/06:30am 8.1 4.0 2.1 66 2.8 W 13 26 7 14 - - 0.0
22/06:00am 8.3 3.8 2.1 65 2.9 W 15 26 8 14 - - 0.0
22/05:30am 8.8 3.9 1.9 62 3.2 W 17 33 9 18 - - 0.0
22/05:00am 8.1 4.7 2.1 66 2.8 W 9 20 5 11 - - 0.0
22/04:30am 8.7 4.0 3.3 69 2.6 W 17 30 9 16 - - 0.0
22/04:00am 4.8 1.6 3.3 90 0.7 W 9 19 5 10 - - 0.0
22/03:30am 2.6 0.8 1.4 92 0.5 CALM 0 4 0 2 - - 0.0
22/03:00am 2.9 0.8 1.4 90 0.7 NE 2 4 1 2 - - 0.0
22/02:30am 2.7 0.5 0.8 87 0.8 WSW 2 9 1 5 - - 0.0
22/02:00am 1.7 -0.4 -0.9 83 1.1 CALM 0 4 0 2 - - 0.0
22/01:30am 1.6 -0.4 -0.3 87 0.8 CALM 0 0 0 0 - - 0.0
22/01:00am 1.0 -1.5 -1.2 85 0.9 NE 2 2 1 1 - - 0.0
22/12:30am 1.2 -1.3 -1.2 84 1.0 WSW 2 6 1 3 - - 0.0
22/12:00am 1.5 -0.6 -1.1 83 1.0 CALM 0 4 0 2 - - 0.0
 
Date/Time
EDT
Temp
°C
App
Temp
°C
Dew
Point
°C
Rel
Hum
%
Delta-T
°C
Wind Press
QNH
hPa
Press
MSL
hPa
Rain since
9am
mm
Dir  Spd
km/h
Gust
km/h
Spd
kts
Gust
kts
21/11:30pm 1.6 -0.9 -0.8 84 1.0 SW 2 6 1 3 - - 0.0
21/11:00pm 1.9 -0.6 -1.0 81 1.2 SSE 2 4 1 2 - - 0.0
21/10:30pm 3.5 0.3 -0.5 75 1.7 SW 6 9 3 5 - - 0.0
21/10:00pm 3.0 0.1 -1.0 75 1.6 SW 4 6 2 3 - - 0.0
21/09:30pm 5.0 2.6 -0.4 68 2.3 SW 2 4 1 2 - - 0.0
21/09:00pm 6.0 2.9 0.3 67 2.5 WSW 6 7 3 4 - - 0.0
21/08:30pm 4.7 1.9 -0.5 69 2.2 SW 4 7 2 4 - - 0.0
21/08:00pm 6.8 4.2 0.7 65 2.7 WSW 4 7 2 4 - - 0.0
21/07:30pm 8.2 5.7 1.4 62 3.1 SSW 4 7 2 4 - - 0.0
21/07:00pm 10.8 8.5 0.2 48 4.8 N 2 6 1 3 - - 0.0
21/06:30pm 14.4 11.2 -0.8 35 7.0 SSW 6 15 3 8 - - 0.0
21/06:00pm 14.6 11.2 -2.3 31 7.5 SE 6 15 3 8 - - 0.0
21/05:30pm 14.6 11.5 -2.3 31 7.5 SE 4 11 2 6 - - 0.0
21/05:00pm 15.2 11.5 -2.7 29 7.9 SSW 7 19 4 10 - - 0.0
21/04:30pm 15.5 11.7 -3.4 27 8.3 SE 7 20 4 11 - - 0.0
21/04:00pm 15.9 11.4 -3.0 27 8.4 SE 11 17 6 9 - - 0.0
21/03:30pm 16.5 12.8 -3.0 26 8.7 SE 7 17 4 9 - - 0.0
21/03:00pm 16.3 11.9 -2.7 27 8.5 ESE 11 20 6 11 - - 0.0
21/02:30pm 16.4 12.7 -3.1 26 8.7 ESE 7 19 4 10 - - 0.0
21/02:00pm 16.2 12.1 -2.8 27 8.5 SE 9 19 5 10 - - 0.0
21/01:30pm 16.4 12.4 -5.3 22 9.2 SE 7 20 4 11 - - 0.0
21/01:00pm 15.5 11.0 -6.7 21 9.1 SE 9 19 5 10 - - 0.0
21/12:30pm 16.0 11.6 -6.3 21 9.2 SE 9 19 5 10 - - 0.0
21/12:00pm 14.6 9.9 -8.7 19 9.0 SE 9 20 5 11 - - 0.0
21/11:30am 15.6 11.8 -5.4 23 8.8 S 6 13 3 7 - - 0.0
21/11:00am 14.4 9.5 -7.6 21 8.7 S 11 20 6 11 - - 0.0
21/10:30am 14.0 8.9 -9.2 19 8.8 SSW 11 26 6 14 - - 0.0
21/10:00am 13.2 7.5 -12.0 16 8.9 SW 13 20 7 11 - - 0.0
21/09:30am 12.5 7.1 -13.4 15 8.8 SSW 11 24 6 13 - - 0.0
21/09:00am 11.9 5.8 -12.3 17 8.4 SSW 15 24 8 13 - - 0.0
21/08:30am 10.9 6.5 -9.9 22 7.5 SW 7 17 4 9 - - 0.0
21/08:00am 8.9 3.5 -14.1 18 7.3 SW 11 22 6 12 - - 0.0
21/07:30am 6.7 1.0 -11.9 25 6.1 SW 13 24 7 13 - - 0.0
21/07:00am 4.4 -0.7 -9.7 35 5.0 SW 11 20 6 11 - - 0.0
21/06:30am 3.2 -1.4 -8.1 43 4.1 SW 9 17 5 9 - - 0.0
21/06:00am 2.6 -1.9 -7.0 49 3.5 SW 9 17 5 9 - - 0.0
21/05:30am 2.0 -1.8 -5.4 58 2.8 WSW 6 9 3 5 - - 0.0
21/05:00am 1.9 -1.3 -3.4 68 2.1 SW 4 9 2 5 - - 0.0
21/04:30am 1.6 -1.1 -2.3 75 1.5 W 2 6 1 3 - - 0.0
21/04:00am 1.7 -1.0 -2.1 76 1.5 WSW 2 11 1 6 - - 0.0
21/03:30am 1.9 -1.0 -1.0 81 1.2 SW 4 9 2 5 - - 0.0
21/03:00am 1.4 -2.1 -1.3 82 1.1 SW 7 11 4 6 - - 0.0
21/02:30am 1.3 -1.9 -0.8 86 0.8 SW 6 11 3 6 - - 0.0
21/02:00am 1.4 -1.4 -0.7 86 0.9 SW 4 9 2 5 - - 0.0
21/01:30am 2.4 -0.7 0.0 84 1.0 SW 6 11 3 6 - - 0.0
21/01:00am 2.5 -0.8 0.1 84 1.0 SW 7 13 4 7 - - 0.0
21/12:30am 2.7 -0.6 0.3 84 1.0 SW 7 17 4 9 - - 0.0
21/12:00am 2.2 -0.9 0.3 87 0.8 SW 6 13 3 7 - - 0.0
 
Date/Time
EDT
Temp
°C
App
Temp
°C
Dew
Point
°C
Rel
Hum
%
Delta-T
°C
Wind Press
QNH
hPa
Press
MSL
hPa
Rain since
9am
mm
Dir  Spd
km/h
Gust
km/h
Spd
kts
Gust
kts
20/11:30pm 1.6 -1.7 0.4 92 0.5 WSW 7 13 4 7 - - 0.0
20/11:00pm -0.4 -3.0 -1.7 91 0.5 WSW 2 6 1 3 - - 0.0
20/10:30pm -0.3 -2.9 -1.9 89 0.6 NE 2 4 1 2 - - 0.0
20/10:00pm 0.4 -1.8 -1.5 87 0.8 CALM 0 0 0 0 - - 0.0
20/09:30pm 0.8 -2.1 -1.3 86 0.9 WSW 4 7 2 4 - - 0.0
20/09:00pm 1.2 -1.7 -1.4 83 1.0 SW 4 6 2 3 - - 0.0
20/08:30pm 2.1 -0.1 -1.5 77 1.4 CALM 0 6 0 3 - - 0.0
20/08:00pm 3.3 0.4 -0.9 74 1.7 WSW 4 6 2 3 - - 0.0
20/07:30pm 4.7 1.9 -0.7 68 2.3 WSW 4 9 2 5 - - 0.0
20/07:00pm 6.4 3.6 -0.6 61 3.0 WSW 4 9 2 5 - - 0.0
20/06:30pm 8.2 4.8 -0.3 55 3.7 SSW 7 17 4 9 - - 0.0
20/06:00pm 8.8 5.0 -1.0 50 4.2 SW 9 17 5 9 - - 0.0
20/05:30pm 9.2 5.7 -1.5 47 4.6 SSW 7 15 4 8 - - 0.0
20/05:00pm 9.6 5.9 0.0 51 4.3 WSW 9 19 5 10 - - 0.0
20/04:30pm 10.1 6.8 -0.1 49 4.6 SW 7 17 4 9 - - 0.0
20/04:00pm 10.3 6.2 -0.2 48 4.7 WSW 11 24 6 13 - - 0.0
20/03:30pm 9.9 5.4 -0.6 48 4.6 WSW 13 28 7 15 - - 0.0
20/03:00pm 10.4 6.3 -0.1 48 4.7 WSW 11 20 6 11 - - 0.0
20/02:30pm 11.1 7.2 -1.6 41 5.5 SW 9 26 5 14 - - 0.0
20/02:00pm 10.5 5.7 -2.2 41 5.4 SW 13 28 7 15 - - 0.0
20/01:30pm 10.4 5.4 -4.0 36 5.9 SSW 13 26 7 14 - - 0.0
20/01:00pm 10.1 5.3 -2.2 42 5.3 WSW 13 26 7 14 - - 0.0
20/12:30pm 9.7 4.6 -2.3 43 5.1 WSW 15 30 8 16 - - 0.0
20/12:00pm 9.6 5.3 -1.7 45 4.9 WSW 11 22 6 12 - - 0.0
20/11:30am 9.6 5.3 -1.7 45 4.9 WSW 11 24 6 13 - - 0.0
20/11:00am 8.9 4.6 -1.5 48 4.5 WSW 11 22 6 12 - - 0.0
20/10:30am 7.8 4.2 -2.2 49 4.2 WSW 7 17 4 9 - - 0.0
20/10:00am 6.9 2.4 -3.3 48 4.1 WSW 11 24 6 13 - - 0.0
20/09:30am 5.1 -0.8 -5.3 47 3.9 WSW 17 24 9 13 - - 0.0
20/09:00am 4.1 -0.9 -7.9 41 4.4 SW 11 30 6 16 - - 1.0
20/08:30am 3.3 -2.5 -9.0 40 4.3 WSW 15 28 8 15 - - 1.0
20/08:00am 2.7 -3.2 -9.5 40 4.2 SW 15 24 8 13 - - 1.0
20/07:30am 1.6 -4.8 -11.8 36 4.2 SSW 17 28 9 15 - - 1.0
20/07:00am -0.3 -6.3 -10.8 45 3.2 SSW 15 22 8 12 - - 1.0
20/06:30am -2.6 -7.0 -10.8 53 2.3 SW 7 17 4 9 - - 1.0
20/06:00am -2.0 -7.5 -9.1 58 2.1 WSW 13 32 7 17 - - 1.0
20/05:30am -2.0 -8.0 -6.7 70 1.5 WSW 17 30 9 16 - - 1.0
20/05:00am -2.2 -8.1 -5.3 79 1.0 W 17 35 9 19 - - 1.0
20/04:30am -2.2 -7.7 -5.5 78 1.0 WSW 15 33 8 18 - - 1.0
20/04:00am -1.7 -7.7 -7.0 67 1.7 WSW 17 30 9 16 - - 1.0
20/03:30am -1.4 -6.7 -6.9 66 1.8 WSW 13 28 7 15 - - 1.0
20/03:00am -1.3 -7.7 -5.0 76 1.2 WSW 20 44 11 24 - - 1.0
20/02:30am -1.2 -7.4 -5.0 75 1.3 WSW 19 41 10 22 - - 1.0
20/02:00am -1.0 -7.3 -4.3 78 1.1 WSW 20 43 11 23 - - 1.0
20/01:30am -1.0 -7.1 -4.0 80 1.0 WSW 19 33 10 18 - - 1.0
20/01:00am -0.8 -5.4 -3.8 80 1.1 W 11 24 6 13 - - 1.0
20/12:30am -0.6 -6.7 -3.9 78 1.2 WSW 19 39 10 21 - - 1.0
20/12:00am -0.6 -8.0 -3.4 81 1.0 WSW 26 50 14 27 - - 1.0
 
Date/Time
EDT
Temp
°C
App
Temp
°C
Dew
Point
°C
Rel
Hum
%
Delta-T
°C
Wind Press
QNH
hPa
Press
MSL
hPa
Rain since
9am
mm
Dir  Spd
km/h
Gust
km/h
Spd
kts
Gust
kts
19/11:30pm -0.5 -8.7 -3.9 78 1.2 WSW 30 48 16 26 - - 1.0
19/11:08pm -0.3 -8.0 -3.3 80 1.1 WSW 28 54 15 29 - - 1.0
19/11:00pm -0.4 -7.4 -3.4 80 1.1 WSW 24 57 13 31 - - 1.0
19/10:55pm -0.4 -8.2 -3.4 80 1.1 W 28 69 15 37 - - 1.0
19/10:30pm -0.5 -6.7 -3.0 83 0.9 W 20 46 11 25 - - 1.0
19/10:00pm -0.5 -5.7 -2.9 84 0.9 W 15 43 8 23 - - 1.0
19/09:30pm -0.6 -6.8 -3.4 81 1.0 WSW 20 44 11 24 - - 1.0
19/09:00pm -0.7 -6.4 -3.7 80 1.1 WSW 17 30 9 16 - - 1.0
19/08:30pm -0.8 -6.9 -4.1 78 1.2 WSW 19 35 10 19 - - 1.0

Latest Capital City Observations: Canberra | Sydney | Melbourne | Brisbane | Adelaide | Perth | Hobart | Darwin

Other formats

Comma delimited format used in spreadsheet applications
http://www.bom.gov.au/fwo/IDN60903/IDN60903.94915.axf

JavaScript Object Notation format (JSON) in row-major order
http://www.bom.gov.au/fwo/IDN60903/IDN60903.94915.json

Data quality

Most of these data are generated automatically and are frequently updated. Quality checks on data are not normally performed. It is possible for incorrect values to appear. Refer to information at About Latest Weather Observations and please check the disclaimer before using these data.